Cork, Ireland

9:59 PM GMT on February 25, 2017 (GMT +0000)
Cork | | Change Station

Elev 531 ft 51.85 °N, 8.48 °W | Updated 29 minutes ago

Mostly Cloudy
Mostly Cloudy
45 °F
Feels Like 41 °F
N
7
Wind Variable Wind from SW

Today
High -- | Low -- °F
--% Chance of Precip.
Yesterday
High -- | Low -- °F
Precip. -- in
Pressure 29.71 in
Visibility 6.2 miles
Clouds Few 600 ft
Mostly Cloudy 3000 ft
Windchill 41 °F
Dew Point 43 °F
Humidity 93%
Rainfall 0.00 in
Snow Depth Not available.
7:27 AM 6:06 PM
Waning Crescent, 1% visible
METAR EICK 252130Z 23006KT 9999 FEW006 BKN030 07/06 Q1006 NOSIG
Pressure 29.71 in
Visibility 6.2 miles
Clouds Few 600 ft
Mostly Cloudy 3000 ft
Windchill 41 °F
Dew Point 43 °F
Humidity 93%
Rainfall 0.00 in
Snow Depth Not available.
7:27 AM 6:06 PM
Waning Crescent, 1% visible
METAR EICK 252130Z 23006KT 9999 FEW006 BKN030 07/06 Q1006 NOSIG

Get Your Daily Forecast Email!

Thanks for signing up!

Be on the lookout for a verification email in your inbox.

You'll start receiving the daily forecast at 8 AM.

×

10-Day Weather Forecast

×

Almanac

Astronomy

Feb. 25, 2017 Rise Set
Actual Time
Civil Twilight
Nautical Twilight
Astronomical Twilight
Moon
Length of Visible Light
Length of Day
Tomorrow will be .
, % of the Moon is Illuminated

Today's Extremes

Country Highs Country Lows

Community

WunderPhotos

Upload Photos

1,962,540 photos uploaded!

WunderBlog® & News

Nearby

Air Quality

  Air Quality AQ Index Pollutant
Not available.

Snow Depth

Station Depth Elevation

Earthquake Activity

City Distance Mag. Time & Date
Minimum magnitude displayed is 2.5.

Coastal Water Temperatures

Place Temperature

Stations

Nearby Weather Stations

Station Location Temp. Windchill Dew Point Humidity Wind Precip. Elev Updated Type